createdAt,value
2022-10-06T00:00:47.576Z,16.60
2022-10-06T00:03:17.655Z,16.50
2022-10-06T00:05:46.021Z,16.50
2022-10-06T00:08:14.178Z,16.50
2022-10-06T00:10:42.553Z,16.50
2022-10-06T00:13:10.647Z,16.60
2022-10-06T00:15:38.883Z,16.50
2022-10-06T00:18:07.200Z,16.50
2022-10-06T00:20:36.594Z,16.40
2022-10-06T00:23:05.581Z,16.40
2022-10-06T00:25:33.907Z,16.40
2022-10-06T00:28:02.125Z,16.30
2022-10-06T00:30:31.230Z,16.40
2022-10-06T00:33:00.873Z,16.30
2022-10-06T00:35:32.076Z,16.30
2022-10-06T00:38:01.887Z,16.30
2022-10-06T00:40:30.640Z,16.40
2022-10-06T00:43:03.291Z,16.30
2022-10-06T00:45:33.777Z,16.10
2022-10-06T00:48:03.645Z,16.10
2022-10-06T00:50:32.265Z,16.10
2022-10-06T00:53:02.279Z,16.10
2022-10-06T00:55:31.051Z,16.00
2022-10-06T00:58:00.367Z,15.90
2022-10-06T01:00:28.995Z,16.00
2022-10-06T01:02:59.884Z,16.00
2022-10-06T01:05:29.839Z,16.20
2022-10-06T01:07:58.427Z,16.10
2022-10-06T01:10:28.927Z,15.90
2022-10-06T01:12:57.375Z,15.80
2022-10-06T01:15:26.932Z,15.90
2022-10-06T01:17:56.730Z,15.90
2022-10-06T01:20:25.261Z,15.90
2022-10-06T01:22:58.452Z,15.60
2022-10-06T01:25:26.906Z,15.70
2022-10-06T01:27:56.184Z,15.90
2022-10-06T01:30:29.320Z,15.70
2022-10-06T01:32:58.010Z,15.60
2022-10-06T01:35:26.638Z,15.50
2022-10-06T01:37:58.878Z,15.60
2022-10-06T01:40:29.390Z,15.50
2022-10-06T01:43:00.613Z,15.50
2022-10-06T01:45:29.560Z,15.50
2022-10-06T01:47:57.741Z,15.50
2022-10-06T01:50:25.834Z,15.60
2022-10-06T01:52:55.989Z,15.60
2022-10-06T01:55:25.715Z,15.60
2022-10-06T01:57:54.336Z,15.50
2022-10-06T02:00:22.839Z,15.50
2022-10-06T02:02:51.115Z,15.60
2022-10-06T02:05:19.672Z,15.30
2022-10-06T02:07:51.660Z,15.20
2022-10-06T02:10:19.923Z,15.30
2022-10-06T02:12:52.678Z,15.20
2022-10-06T02:15:22.789Z,15.10
2022-10-06T02:17:52.462Z,15.00
2022-10-06T02:20:20.592Z,15.00
2022-10-06T02:22:48.982Z,15.20
2022-10-06T02:25:18.217Z,15.20
2022-10-06T02:27:46.354Z,15.10
2022-10-06T02:30:16.154Z,14.90
2022-10-06T02:32:46.120Z,15.00
2022-10-06T02:35:15.126Z,15.00
2022-10-06T02:37:44.600Z,15.00
2022-10-06T02:40:17.081Z,15.00
2022-10-06T02:42:46.261Z,15.10
2022-10-06T02:45:19.570Z,15.00
2022-10-06T02:47:47.650Z,15.00
2022-10-06T02:50:16.203Z,15.10
2022-10-06T02:52:45.830Z,15.10
2022-10-06T02:55:13.989Z,15.00
2022-10-06T02:57:42.038Z,14.90
2022-10-06T03:00:11.483Z,14.90
2022-10-06T03:02:42.013Z,14.90
2022-10-06T03:05:11.480Z,15.00
2022-10-06T03:07:40.176Z,14.90
2022-10-06T03:10:08.844Z,14.80
2022-10-06T03:12:37.687Z,14.80
2022-10-06T03:15:08.365Z,14.80
2022-10-06T03:17:36.555Z,14.70
2022-10-06T03:20:07.547Z,14.80
2022-10-06T03:22:35.707Z,14.90
2022-10-06T03:25:04.061Z,14.90
2022-10-06T03:27:33.776Z,14.70
2022-10-06T03:30:05.124Z,14.70
2022-10-06T03:32:35.477Z,14.80
2022-10-06T03:35:03.547Z,14.80
2022-10-06T03:37:33.070Z,14.70
2022-10-06T03:40:01.377Z,14.70
2022-10-06T03:42:29.635Z,14.80
2022-10-06T03:44:57.843Z,14.70
2022-10-06T03:47:26.199Z,14.70
2022-10-06T03:49:54.321Z,14.60
2022-10-06T03:52:25.846Z,14.60
2022-10-06T03:54:56.245Z,14.70
2022-10-06T03:57:24.580Z,14.60
2022-10-06T03:59:52.700Z,14.70
2022-10-06T04:02:21.357Z,14.50
2022-10-06T04:04:49.462Z,14.30
2022-10-06T04:07:17.577Z,14.40
2022-10-06T04:09:47.079Z,14.30
2022-10-06T04:12:18.418Z,14.20
2022-10-06T04:14:46.816Z,14.20
2022-10-06T04:17:15.231Z,14.50
2022-10-06T04:19:43.368Z,14.30
2022-10-06T04:22:11.356Z,14.30
2022-10-06T04:24:40.302Z,14.40
2022-10-06T04:27:26.168Z,14.40
2022-10-06T04:30:04.361Z,14.40
2022-10-06T04:32:33.393Z,14.30
2022-10-06T04:35:01.951Z,14.20
2022-10-06T04:37:30.437Z,14.20
2022-10-06T04:39:59.337Z,14.30
2022-10-06T04:42:33.968Z,14.40
2022-10-06T04:45:06.434Z,14.30
2022-10-06T04:47:34.686Z,14.40
2022-10-06T04:50:03.077Z,14.20
2022-10-06T04:52:34.939Z,14.20
2022-10-06T04:55:03.665Z,14.20
2022-10-06T04:57:32.011Z,14.20
2022-10-06T05:00:18.638Z,14.40
2022-10-06T05:02:49.784Z,14.20
2022-10-06T05:05:18.033Z,14.30
2022-10-06T05:07:47.134Z,14.30
2022-10-06T05:10:15.920Z,14.20
2022-10-06T05:12:44.663Z,14.10
2022-10-06T05:15:12.703Z,14.10
2022-10-06T05:17:41.289Z,14.30
2022-10-06T05:20:12.126Z,14.20
2022-10-06T05:22:40.588Z,14.30
2022-10-06T05:25:09.143Z,14.00
2022-10-06T05:27:37.889Z,14.00
2022-10-06T05:30:06.535Z,14.10
2022-10-06T05:32:36.198Z,14.10
2022-10-06T05:35:05.845Z,14.10
2022-10-06T05:37:35.435Z,13.90
2022-10-06T05:40:03.605Z,14.00
2022-10-06T05:42:31.981Z,14.00
2022-10-06T05:45:01.300Z,14.00
2022-10-06T05:47:29.875Z,14.10
2022-10-06T05:49:58.330Z,13.90
2022-10-06T05:52:26.569Z,14.00
2022-10-06T05:54:56.427Z,14.00
2022-10-06T05:57:24.950Z,14.30
2022-10-06T05:59:53.084Z,14.30
2022-10-06T06:02:21.130Z,14.10
2022-10-06T06:04:49.606Z,14.00
2022-10-06T06:07:17.867Z,13.90
2022-10-06T06:09:47.414Z,13.70
2022-10-06T06:12:17.182Z,13.90
2022-10-06T06:15:07.409Z,13.90
2022-10-06T06:17:43.488Z,14.20
2022-10-06T06:20:11.670Z,14.10
2022-10-06T06:22:40.645Z,14.00
2022-10-06T06:25:09.443Z,14.00
2022-10-06T06:27:39.165Z,13.80
2022-10-06T06:30:09.304Z,13.80
2022-10-06T06:32:38.867Z,13.90
2022-10-06T06:35:08.161Z,13.90
2022-10-06T06:37:36.289Z,14.00
2022-10-06T06:40:04.964Z,13.90
2022-10-06T06:42:37.936Z,14.10
2022-10-06T06:45:25.943Z,14.20
2022-10-06T06:48:02.329Z,14.00
2022-10-06T06:50:32.058Z,14.10
2022-10-06T06:53:02.478Z,14.20
2022-10-06T06:55:32.747Z,14.10
2022-10-06T06:58:01.734Z,14.10
2022-10-06T07:00:35.890Z,14.10
2022-10-06T07:03:06.117Z,14.20
2022-10-06T07:05:35.525Z,14.20
2022-10-06T07:08:03.763Z,14.10
2022-10-06T07:10:36.277Z,14.00
2022-10-06T07:13:06.855Z,14.00
2022-10-06T07:15:54.761Z,14.10
2022-10-06T07:18:40.199Z,14.10
2022-10-06T07:21:36.007Z,14.10
2022-10-06T07:24:21.601Z,14.10
2022-10-06T07:26:49.858Z,14.20
2022-10-06T07:29:18.051Z,14.10
2022-10-06T07:31:47.622Z,14.00
2022-10-06T07:34:16.015Z,14.10
2022-10-06T07:36:46.411Z,14.10
2022-10-06T07:39:14.799Z,14.10
2022-10-06T07:41:43.096Z,14.10
2022-10-06T07:44:11.140Z,14.10
2022-10-06T07:46:40.300Z,14.10
2022-10-06T07:49:17.421Z,14.00
2022-10-06T07:51:45.514Z,14.00
2022-10-06T07:54:14.095Z,14.20
2022-10-06T07:56:57.506Z,14.40
2022-10-06T07:59:25.642Z,14.50
2022-10-06T08:01:54.978Z,14.50
2022-10-06T08:04:24.786Z,14.60
2022-10-06T08:06:54.522Z,14.70
2022-10-06T08:09:22.683Z,14.70
2022-10-06T08:11:51.132Z,14.60
2022-10-06T08:14:19.183Z,14.70
2022-10-06T08:16:47.413Z,14.90
2022-10-06T08:19:17.878Z,15.00
2022-10-06T08:21:47.400Z,14.90
2022-10-06T08:24:19.654Z,15.10
2022-10-06T08:26:47.774Z,15.00
2022-10-06T08:29:15.929Z,15.10
2022-10-06T08:31:44.338Z,14.90
2022-10-06T08:34:12.528Z,15.00
2022-10-06T08:36:44.987Z,15.00
2022-10-06T08:39:22.020Z,15.20
2022-10-06T08:41:51.133Z,15.20
2022-10-06T08:44:21.480Z,15.20
2022-10-06T08:46:53.881Z,15.20
2022-10-06T08:49:23.341Z,15.20
2022-10-06T08:51:55.729Z,15.30
2022-10-06T08:54:29.934Z,15.40
2022-10-06T08:57:03.719Z,15.50
2022-10-06T08:59:33.858Z,15.40
2022-10-06T09:02:06.797Z,15.40
2022-10-06T09:04:35.267Z,15.50
2022-10-06T09:07:09.238Z,15.40
2022-10-06T09:09:53.576Z,15.60
2022-10-06T09:12:28.204Z,15.70
2022-10-06T09:14:57.688Z,15.50
2022-10-06T09:17:28.750Z,15.70
2022-10-06T09:19:59.361Z,15.70
2022-10-06T09:22:31.205Z,15.70
2022-10-06T09:25:15.535Z,15.90
2022-10-06T09:27:45.111Z,15.90
2022-10-06T09:30:13.738Z,15.90
2022-10-06T09:32:46.583Z,15.90
2022-10-06T09:35:17.944Z,15.90
2022-10-06T09:37:57.092Z,15.90
2022-10-06T09:40:35.624Z,16.10
2022-10-06T09:43:04.811Z,16.00
2022-10-06T09:45:33.222Z,16.10
2022-10-06T09:48:12.756Z,16.10
2022-10-06T09:50:41.066Z,16.10
2022-10-06T09:53:13.887Z,16.30
2022-10-06T09:55:45.028Z,16.40
2022-10-06T09:58:18.991Z,16.40
2022-10-06T10:00:49.009Z,16.40
2022-10-06T10:03:17.304Z,16.40
2022-10-06T10:05:47.903Z,16.50
2022-10-06T10:08:22.371Z,16.70
2022-10-06T10:11:32.217Z,16.80
2022-10-06T10:14:01.042Z,16.90
2022-10-06T10:16:31.044Z,16.80
2022-10-06T10:19:00.146Z,16.90
2022-10-06T10:21:30.247Z,16.80
2022-10-06T10:23:59.689Z,16.90
2022-10-06T10:26:35.844Z,16.80
2022-10-06T10:29:34.425Z,16.80
2022-10-06T10:32:09.786Z,16.80
2022-10-06T10:34:46.073Z,16.90
2022-10-06T10:37:16.274Z,17.00
2022-10-06T10:39:48.339Z,16.80
2022-10-06T10:42:19.907Z,16.80
2022-10-06T10:44:52.939Z,17.00
2022-10-06T10:47:25.563Z,17.00
2022-10-06T10:49:58.652Z,17.30
2022-10-06T10:52:28.990Z,17.40
2022-10-06T10:55:03.957Z,17.30
2022-10-06T10:57:36.474Z,17.40
2022-10-06T11:00:07.499Z,17.40
2022-10-06T11:02:35.854Z,17.30
2022-10-06T11:05:05.735Z,17.30
2022-10-06T11:07:38.854Z,17.40
2022-10-06T11:10:10.533Z,17.30
2022-10-06T11:12:50.072Z,17.40
2022-10-06T11:15:22.436Z,17.50
2022-10-06T11:17:51.433Z,17.50
2022-10-06T11:20:34.437Z,17.70
2022-10-06T11:23:08.883Z,17.70
2022-10-06T11:25:42.088Z,17.90
2022-10-06T11:28:17.239Z,18.00
2022-10-06T11:30:51.015Z,17.90
2022-10-06T11:33:21.807Z,17.80
2022-10-06T11:35:50.115Z,17.80
2022-10-06T11:38:22.762Z,17.90
2022-10-06T11:41:04.139Z,17.90
2022-10-06T11:43:40.451Z,17.90
2022-10-06T11:46:16.394Z,17.90
2022-10-06T11:48:44.532Z,18.00
2022-10-06T11:51:29.038Z,17.90
2022-10-06T11:53:57.220Z,17.90
2022-10-06T11:56:46.677Z,17.90
2022-10-06T11:59:27.047Z,18.00
2022-10-06T12:01:56.876Z,18.10
2022-10-06T12:04:26.605Z,17.90
2022-10-06T12:07:04.756Z,18.20
2022-10-06T12:09:34.606Z,18.20
2022-10-06T12:12:03.330Z,18.30
2022-10-06T12:17:32.644Z,18.30
2022-10-06T12:20:06.446Z,18.20
2022-10-06T12:22:40.138Z,18.00
2022-10-06T12:25:14.611Z,18.20
2022-10-06T12:27:49.647Z,18.30
2022-10-06T12:30:22.570Z,18.50
2022-10-06T12:32:52.629Z,18.50
2022-10-06T12:35:25.999Z,18.50
2022-10-06T12:37:55.048Z,18.50
2022-10-06T12:40:41.873Z,18.40
2022-10-06T12:43:27.987Z,18.40
2022-10-06T12:45:58.964Z,18.40
2022-10-06T12:48:29.784Z,18.50
2022-10-06T12:50:59.390Z,18.70
2022-10-06T12:53:32.447Z,18.40
2022-10-06T12:56:03.522Z,18.40
2022-10-06T12:58:32.678Z,18.40
2022-10-06T13:01:03.011Z,18.50
2022-10-06T13:03:31.673Z,18.40
2022-10-06T13:06:02.586Z,18.40
2022-10-06T13:08:31.636Z,18.40
2022-10-06T13:11:13.356Z,18.50
2022-10-06T13:13:47.264Z,18.50
2022-10-06T13:16:17.249Z,18.40
2022-10-06T13:18:45.552Z,18.50
2022-10-06T13:21:14.393Z,18.50
2022-10-06T13:23:43.232Z,18.60
2022-10-06T13:26:19.222Z,18.70
2022-10-06T13:28:48.244Z,18.90
2022-10-06T13:31:22.398Z,19.10
2022-10-06T13:33:52.629Z,19.20
2022-10-06T13:36:23.472Z,19.20
2022-10-06T13:38:52.670Z,19.20
2022-10-06T13:41:27.127Z,19.20
2022-10-06T13:43:56.575Z,19.10
2022-10-06T13:46:27.231Z,19.20
2022-10-06T13:48:59.578Z,19.30
2022-10-06T13:51:30.245Z,19.40
2022-10-06T13:53:59.423Z,19.20
2022-10-06T13:56:46.166Z,19.20
2022-10-06T13:59:29.265Z,19.10
2022-10-06T14:02:00.598Z,19.20
2022-10-06T14:04:29.183Z,19.20
2022-10-06T14:06:59.977Z,19.20
2022-10-06T14:09:30.714Z,18.90
2022-10-06T14:12:03.214Z,18.90
2022-10-06T14:14:31.469Z,18.80
2022-10-06T14:17:01.222Z,18.80
2022-10-06T14:19:36.643Z,18.80
2022-10-06T14:22:06.131Z,18.80
2022-10-06T14:24:38.128Z,19.00
2022-10-06T14:27:07.181Z,18.80
2022-10-06T14:29:38.107Z,19.10
2022-10-06T14:32:14.459Z,19.10
2022-10-06T14:34:42.899Z,19.20
2022-10-06T14:37:15.328Z,19.20
2022-10-06T14:39:44.540Z,19.10
2022-10-06T14:42:14.474Z,19.00
2022-10-06T14:44:43.357Z,19.00
2022-10-06T14:47:14.150Z,19.00
2022-10-06T14:49:44.426Z,19.10
2022-10-06T14:52:12.863Z,18.90
2022-10-06T14:54:42.843Z,19.00
2022-10-06T14:57:11.009Z,19.00
2022-10-06T14:59:40.477Z,19.10
2022-10-06T15:02:10.239Z,19.10
2022-10-06T15:04:40.527Z,19.20
2022-10-06T15:07:26.225Z,19.20
2022-10-06T15:09:54.359Z,19.20
2022-10-06T15:12:22.632Z,19.00
2022-10-06T15:14:50.788Z,19.10
2022-10-06T15:17:18.784Z,19.10
2022-10-06T15:19:48.527Z,19.10
2022-10-06T15:22:16.716Z,19.00
2022-10-06T15:24:48.720Z,18.90
2022-10-06T15:27:34.694Z,18.80
2022-10-06T15:30:03.082Z,18.80
2022-10-06T15:32:31.310Z,19.10
2022-10-06T15:35:00.678Z,19.00
2022-10-06T15:37:28.930Z,19.10
2022-10-06T15:39:57.722Z,19.10
2022-10-06T15:42:25.987Z,19.10
2022-10-06T15:44:53.973Z,19.20
2022-10-06T15:47:23.763Z,19.40
2022-10-06T15:49:51.844Z,19.40
2022-10-06T15:52:21.258Z,19.50
2022-10-06T15:54:50.073Z,19.40
2022-10-06T15:57:21.041Z,19.40
2022-10-06T15:59:49.762Z,19.40
2022-10-06T16:02:19.859Z,19.40
2022-10-06T16:05:15.726Z,19.30
2022-10-06T16:07:45.606Z,19.40
2022-10-06T16:10:13.832Z,19.10
2022-10-06T16:12:41.922Z,19.00
2022-10-06T16:15:10.663Z,19.10
2022-10-06T16:17:39.011Z,19.30
2022-10-06T16:20:07.638Z,19.30
2022-10-06T16:22:36.248Z,19.20
2022-10-06T16:25:06.370Z,19.30
2022-10-06T16:27:35.398Z,19.30
2022-10-06T16:30:03.731Z,19.10
2022-10-06T16:32:31.878Z,18.90
2022-10-06T16:35:00.008Z,18.60
2022-10-06T16:37:28.224Z,18.70
2022-10-06T16:39:56.382Z,18.60
2022-10-06T16:42:25.867Z,18.60
2022-10-06T16:44:54.175Z,18.80
2022-10-06T16:47:22.279Z,18.70
2022-10-06T16:49:50.387Z,18.50
2022-10-06T16:52:18.726Z,18.50
2022-10-06T16:54:46.831Z,18.70
2022-10-06T16:57:15.123Z,18.70
2022-10-06T16:59:46.974Z,18.60
2022-10-06T17:02:15.302Z,18.50
2022-10-06T17:04:43.663Z,18.30
2022-10-06T17:07:11.856Z,18.00
2022-10-06T17:09:55.864Z,17.90
2022-10-06T17:12:28.739Z,17.90
2022-10-06T17:14:58.189Z,17.70
2022-10-06T17:17:26.337Z,17.60
2022-10-06T17:19:54.629Z,17.60
2022-10-06T17:22:22.799Z,17.40
2022-10-06T17:24:50.845Z,17.30
2022-10-06T17:27:19.059Z,17.20
2022-10-06T17:29:47.162Z,17.20
2022-10-06T17:32:16.902Z,17.20
2022-10-06T17:34:45.407Z,17.00
2022-10-06T17:37:13.653Z,17.00
2022-10-06T17:39:46.853Z,16.90
2022-10-06T17:42:16.408Z,17.00
2022-10-06T17:44:45.565Z,17.00
2022-10-06T17:47:13.680Z,16.80
2022-10-06T17:49:43.409Z,16.60
2022-10-06T17:52:11.538Z,16.60
2022-10-06T17:54:41.556Z,16.80
2022-10-06T17:57:10.115Z,16.90
2022-10-06T17:59:38.925Z,16.90
2022-10-06T18:02:08.585Z,16.80
2022-10-06T18:04:38.201Z,16.90
2022-10-06T18:07:08.510Z,17.00
2022-10-06T18:09:36.941Z,16.90
2022-10-06T18:12:07.050Z,16.90
2022-10-06T18:14:35.302Z,16.70
2022-10-06T18:17:04.639Z,16.50
2022-10-06T18:19:34.190Z,16.40
2022-10-06T18:22:03.772Z,16.40
2022-10-06T18:24:33.278Z,16.30
2022-10-06T18:27:01.966Z,16.20
2022-10-06T18:29:31.109Z,16.20
2022-10-06T18:32:16.058Z,16.40
2022-10-06T18:37:35.942Z,16.20
2022-10-06T18:40:08.774Z,16.00
2022-10-06T18:42:37.056Z,15.90
2022-10-06T18:45:24.471Z,15.80
2022-10-06T18:48:10.117Z,15.80
2022-10-06T18:50:39.575Z,15.80
2022-10-06T18:53:07.770Z,15.80
2022-10-06T18:55:37.553Z,16.00
2022-10-06T18:58:06.459Z,16.20
2022-10-06T19:00:34.618Z,16.10
2022-10-06T19:03:02.706Z,16.00
2022-10-06T19:05:32.527Z,15.90
2022-10-06T19:08:00.680Z,15.70
2022-10-06T19:10:29.836Z,15.80
2022-10-06T19:12:59.573Z,15.60
2022-10-06T19:15:27.610Z,15.70
2022-10-06T19:17:55.640Z,15.70
2022-10-06T19:20:24.187Z,15.60
2022-10-06T19:22:52.281Z,15.50
2022-10-06T19:25:21.805Z,15.40
2022-10-06T19:27:50.281Z,15.40
2022-10-06T19:30:19.961Z,15.30
2022-10-06T19:32:50.190Z,15.30
2022-10-06T19:35:19.017Z,15.20
2022-10-06T19:37:47.134Z,15.10
2022-10-06T19:40:15.304Z,15.10
2022-10-06T19:42:49.152Z,15.10
2022-10-06T19:45:17.949Z,15.20
2022-10-06T19:47:48.054Z,15.20
2022-10-06T19:50:17.265Z,15.10
2022-10-06T19:52:46.349Z,15.20
2022-10-06T19:55:14.818Z,15.30
2022-10-06T19:57:43.516Z,15.20
2022-10-06T20:00:12.744Z,15.30
2022-10-06T20:02:43.441Z,15.30
2022-10-06T20:05:14.474Z,15.30
2022-10-06T20:07:43.839Z,15.40
2022-10-06T20:10:12.564Z,15.30
2022-10-06T20:12:41.336Z,15.30
2022-10-06T20:15:10.889Z,15.30
2022-10-06T20:17:41.892Z,15.30
2022-10-06T20:20:11.166Z,15.10
2022-10-06T20:22:40.637Z,15.20
2022-10-06T20:25:08.894Z,15.30
2022-10-06T20:27:37.457Z,15.20
2022-10-06T20:30:06.567Z,15.30
2022-10-06T20:32:35.491Z,15.40
2022-10-06T20:35:04.941Z,15.50
2022-10-06T20:37:33.106Z,15.50
2022-10-06T20:40:20.127Z,15.60
2022-10-06T20:42:49.550Z,15.50
2022-10-06T20:45:18.129Z,15.40
2022-10-06T20:47:47.946Z,15.30
2022-10-06T20:50:16.309Z,15.20
2022-10-06T20:52:44.383Z,15.20
2022-10-06T20:55:14.536Z,15.10
2022-10-06T20:57:42.834Z,15.30
2022-10-06T21:00:11.570Z,15.60
2022-10-06T21:02:40.542Z,15.50
2022-10-06T21:05:10.032Z,15.40
2022-10-06T21:07:38.163Z,15.30
2022-10-06T21:10:06.806Z,15.40
2022-10-06T21:12:36.528Z,15.50
2022-10-06T21:15:05.036Z,15.40
2022-10-06T21:17:33.153Z,15.30
2022-10-06T21:20:01.508Z,15.30
2022-10-06T21:22:31.440Z,15.10
2022-10-06T21:24:59.435Z,14.90
2022-10-06T21:27:27.844Z,14.80
2022-10-06T21:29:57.200Z,14.80
2022-10-06T21:32:25.817Z,14.80
2022-10-06T21:34:56.339Z,14.90
2022-10-06T21:37:24.322Z,14.90
2022-10-06T21:39:52.495Z,14.90
2022-10-06T21:42:20.879Z,14.80
2022-10-06T21:44:48.847Z,14.60
2022-10-06T21:47:18.361Z,14.50
2022-10-06T21:49:46.601Z,14.50
2022-10-06T21:52:14.780Z,14.50
2022-10-06T21:54:42.781Z,14.50
2022-10-06T21:57:11.125Z,14.70
2022-10-06T21:59:39.194Z,14.80
2022-10-06T22:02:07.371Z,14.80
2022-10-06T22:04:38.149Z,14.90
2022-10-06T22:07:06.287Z,14.80
2022-10-06T22:09:34.346Z,14.70
2022-10-06T22:12:02.607Z,14.60
2022-10-06T22:14:30.713Z,14.40
2022-10-06T22:16:58.823Z,14.20
2022-10-06T22:19:27.398Z,14.10
2022-10-06T22:21:56.769Z,14.00
2022-10-06T22:24:24.896Z,14.00
2022-10-06T22:26:53.147Z,14.00
2022-10-06T22:29:21.367Z,14.10
2022-10-06T22:31:50.003Z,14.20
2022-10-06T22:34:19.537Z,14.10
2022-10-06T22:36:47.732Z,14.10
2022-10-06T22:39:17.300Z,14.00
2022-10-06T22:41:45.628Z,14.00
2022-10-06T22:44:13.670Z,14.00
2022-10-06T22:46:41.797Z,13.90
2022-10-06T22:49:10.132Z,13.90
2022-10-06T22:51:39.016Z,13.80
2022-10-06T22:54:07.247Z,13.90
2022-10-06T22:56:36.841Z,13.90
2022-10-06T22:59:04.986Z,13.90
2022-10-06T23:01:32.969Z,13.90
2022-10-06T23:04:01.191Z,13.90
2022-10-06T23:06:31.263Z,13.70
2022-10-06T23:08:59.855Z,13.70
2022-10-06T23:11:28.457Z,13.80
2022-10-06T23:13:57.957Z,13.80
2022-10-06T23:16:26.138Z,13.70
2022-10-06T23:18:55.075Z,13.70
2022-10-06T23:21:24.357Z,13.60
2022-10-06T23:23:53.823Z,13.60
2022-10-06T23:26:22.934Z,13.70
2022-10-06T23:28:54.831Z,13.80
2022-10-06T23:31:25.061Z,13.80
2022-10-06T23:33:53.625Z,13.80
2022-10-06T23:36:21.743Z,13.60
2022-10-06T23:38:50.044Z,13.60
2022-10-06T23:41:18.237Z,13.50
2022-10-06T23:43:46.239Z,13.50
2022-10-06T23:46:14.935Z,13.60
2022-10-06T23:48:44.472Z,13.40
2022-10-06T23:51:13.410Z,13.40
2022-10-06T23:53:41.882Z,13.50
2022-10-06T23:56:09.995Z,13.40
2022-10-06T23:58:38.109Z,13.40
